WAT6137 KAPA-KDAL
Flight info
| Callsign | WAT6137 |
|---|---|
| Flight time | 1h 32m |
| Altitude | 39000 |
| Route | SKYEE1 VRONI PNH STNLI JFRYE5 |
| Aircraft | CL60/M-SBDE1E2E3FGHIJ1J4J5J7M3RWXYZ/LB1V1D1 |
Departure
| Time | 2026-04-18 01:56 |
|---|---|
| Airport | Centennial Airport (KAPA) |
Arrival
| Time | 2026-04-18 03:28 |
|---|---|
| Airport | Dallas Love Field (KDAL) |
| Time | Latitude | Longitude | Altitude | Speed | Heading |
|---|---|---|---|---|---|
| 2026-04-18 01:22 | 39.57778 | -104.84849 | 5816 ft | 0 kts | 90° |
| 2026-04-18 01:49 | 39.57776 | -104.84839 | 5816 ft | 0 kts | 121° |
| 2026-04-18 01:50 | 39.57768 | -104.84835 | 5816 ft | 3 kts | 177° |
| 2026-04-18 01:50 | 39.57746 | -104.84868 | 5817 ft | 6 kts | 257° |
| 2026-04-18 01:50 | 39.57740 | -104.84943 | 5817 ft | 7 kts | 264° |
| 2026-04-18 01:50 | 39.57691 | -104.84972 | 5818 ft | 10 kts | 176° |
| 2026-04-18 01:51 | 39.57605 | -104.84968 | 5821 ft | 13 kts | 178° |
| 2026-04-18 01:51 | 39.57510 | -104.84965 | 5824 ft | 13 kts | 178° |
| 2026-04-18 01:51 | 39.57410 | -104.84960 | 5827 ft | 15 kts | 178° |
| 2026-04-18 01:51 | 39.57285 | -104.84953 | 5830 ft | 19 kts | 175° |
| 2026-04-18 01:52 | 39.57148 | -104.84947 | 5835 ft | 19 kts | 179° |
| 2026-04-18 01:52 | 39.57006 | -104.84943 | 5839 ft | 20 kts | 178° |
| 2026-04-18 01:52 | 39.56865 | -104.84935 | 5843 ft | 20 kts | 177° |
| 2026-04-18 01:52 | 39.56725 | -104.84928 | 5848 ft | 20 kts | 178° |
| 2026-04-18 01:53 | 39.56583 | -104.84922 | 5853 ft | 19 kts | 178° |
| 2026-04-18 01:53 | 39.56442 | -104.84916 | 5857 ft | 20 kts | 178° |
| 2026-04-18 01:53 | 39.56296 | -104.84909 | 5862 ft | 21 kts | 178° |
| 2026-04-18 01:54 | 39.56017 | -104.84896 | 5870 ft | 18 kts | 177° |
| 2026-04-18 01:54 | 39.55909 | -104.84892 | 5873 ft | 15 kts | 178° |
| 2026-04-18 01:54 | 39.55798 | -104.84886 | 5876 ft | 16 kts | 178° |
| 2026-04-18 01:54 | 39.55696 | -104.84882 | 5878 ft | 10 kts | 199° |
| 2026-04-18 01:55 | 39.55680 | -104.84970 | 5879 ft | 9 kts | 266° |
| 2026-04-18 01:55 | 39.55701 | -104.85023 | 5878 ft | 7 kts | 350° |
| 2026-04-18 01:55 | 39.55848 | -104.85031 | 5875 ft | 56 kts | 359° |
| 2026-04-18 01:55 | 39.56520 | -104.85063 | 5856 ft | 132 kts | 358° |
| 2026-04-18 01:56 | 39.57612 | -104.85116 | 6020 ft | 169 kts | 358° |
| 2026-04-18 01:56 | 39.58807 | -104.85315 | 6598 ft | 182 kts | 342° |
| 2026-04-18 01:56 | 39.59893 | -104.86276 | 7156 ft | 201 kts | 312° |
| 2026-04-18 01:56 | 39.60865 | -104.87652 | 7790 ft | 218 kts | 315° |
| 2026-04-18 01:57 | 39.62042 | -104.89110 | 7999 ft | 251 kts | 317° |
| 2026-04-18 01:57 | 39.63306 | -104.90575 | 8921 ft | 244 kts | 318° |
| 2026-04-18 01:57 | 39.64536 | -104.92036 | 9937 ft | 245 kts | 317° |
| 2026-04-18 01:57 | 39.65810 | -104.93559 | 10792 ft | 253 kts | 317° |
| 2026-04-18 01:58 | 39.67065 | -104.95207 | 11649 ft | 274 kts | 308° |
| 2026-04-18 01:58 | 39.68041 | -104.97450 | 12384 ft | 298 kts | 287° |
| 2026-04-18 01:58 | 39.68149 | -105.00188 | 13226 ft | 319 kts | 261° |
| 2026-04-18 01:58 | 39.67228 | -105.02887 | 14189 ft | 338 kts | 237° |
| 2026-04-18 01:59 | 39.65429 | -105.04913 | 15217 ft | 356 kts | 213° |
| 2026-04-18 01:59 | 39.63038 | -105.05869 | 16307 ft | 372 kts | 191° |
| 2026-04-18 01:59 | 39.60416 | -105.05714 | 17345 ft | 385 kts | 178° |
| 2026-04-18 01:59 | 39.57744 | -105.05270 | 18311 ft | 391 kts | 177° |
| 2026-04-18 02:00 | 39.55098 | -105.04408 | 19233 ft | 404 kts | 163° |
| 2026-04-18 02:00 | 39.52615 | -105.02529 | 20132 ft | 419 kts | 146° |
| 2026-04-18 02:00 | 39.50413 | -105.00063 | 20883 ft | 427 kts | 143° |
| 2026-04-18 02:00 | 39.48174 | -104.97513 | 21525 ft | 435 kts | 144° |
| 2026-04-18 02:01 | 39.45880 | -104.94907 | 22179 ft | 442 kts | 145° |
| 2026-04-18 02:01 | 39.43550 | -104.92261 | 22868 ft | 447 kts | 145° |
| 2026-04-18 02:01 | 39.41201 | -104.89597 | 23509 ft | 451 kts | 146° |
| 2026-04-18 02:01 | 39.38827 | -104.86908 | 24164 ft | 456 kts | 146° |
| 2026-04-18 02:02 | 39.36442 | -104.84209 | 24839 ft | 459 kts | 146° |
| 2026-04-18 02:02 | 39.34040 | -104.81493 | 25517 ft | 462 kts | 146° |
| 2026-04-18 02:02 | 39.31596 | -104.78734 | 26067 ft | 467 kts | 147° |
| 2026-04-18 02:02 | 39.29110 | -104.75929 | 26722 ft | 469 kts | 147° |
| 2026-04-18 02:03 | 39.26647 | -104.73155 | 27206 ft | 474 kts | 146° |
| 2026-04-18 02:03 | 39.24130 | -104.70322 | 27715 ft | 477 kts | 146° |
| 2026-04-18 02:03 | 39.21556 | -104.67429 | 28198 ft | 481 kts | 146° |
| 2026-04-18 02:03 | 39.18985 | -104.64544 | 28648 ft | 485 kts | 146° |
| 2026-04-18 02:04 | 39.16385 | -104.61626 | 29104 ft | 487 kts | 147° |
| 2026-04-18 02:04 | 39.13766 | -104.58791 | 29560 ft | 483 kts | 152° |
| 2026-04-18 02:04 | 39.10860 | -104.56680 | 29942 ft | 468 kts | 166° |
| 2026-04-18 02:04 | 39.07752 | -104.55559 | 30313 ft | 454 kts | 179° |
| 2026-04-18 02:05 | 39.04575 | -104.55058 | 30609 ft | 453 kts | 182° |
| 2026-04-18 02:05 | 39.01405 | -104.54596 | 30990 ft | 452 kts | 182° |
| 2026-04-18 02:05 | 38.98262 | -104.54130 | 31587 ft | 446 kts | 182° |
| 2026-04-18 02:05 | 38.95211 | -104.53677 | 32155 ft | 440 kts | 182° |
| 2026-04-18 02:06 | 38.92151 | -104.53226 | 32705 ft | 436 kts | 182° |
| 2026-04-18 02:06 | 38.89129 | -104.52779 | 33233 ft | 432 kts | 182° |
| 2026-04-18 02:06 | 38.86108 | -104.52336 | 33673 ft | 430 kts | 182° |
| 2026-04-18 02:06 | 38.83160 | -104.51905 | 34055 ft | 429 kts | 182° |
| 2026-04-18 02:07 | 38.80180 | -104.51469 | 34373 ft | 429 kts | 182° |
| 2026-04-18 02:07 | 38.77230 | -104.51039 | 34665 ft | 429 kts | 182° |
| 2026-04-18 02:07 | 38.74234 | -104.50603 | 34918 ft | 429 kts | 182° |
| 2026-04-18 02:07 | 38.71261 | -104.50169 | 35154 ft | 430 kts | 182° |
| 2026-04-18 02:08 | 38.68307 | -104.49739 | 35391 ft | 431 kts | 182° |
| 2026-04-18 02:08 | 38.65338 | -104.49306 | 35713 ft | 430 kts | 182° |
| 2026-04-18 02:08 | 38.62355 | -104.48870 | 36068 ft | 429 kts | 182° |
| 2026-04-18 02:08 | 38.59370 | -104.48436 | 36368 ft | 429 kts | 182° |
| 2026-04-18 02:09 | 38.56416 | -104.48007 | 36636 ft | 429 kts | 182° |
| 2026-04-18 02:09 | 38.53426 | -104.47572 | 36933 ft | 430 kts | 182° |
| 2026-04-18 02:09 | 38.50470 | -104.47057 | 37165 ft | 435 kts | 178° |
| 2026-04-18 02:09 | 38.47475 | -104.46126 | 37430 ft | 443 kts | 172° |
| 2026-04-18 02:10 | 38.44531 | -104.44718 | 37695 ft | 453 kts | 165° |
| 2026-04-18 02:10 | 38.41713 | -104.42817 | 37933 ft | 462 kts | 157° |
| 2026-04-18 02:10 | 38.39012 | -104.40632 | 38150 ft | 464 kts | 156° |
| 2026-04-18 02:11 | 38.33548 | -104.36181 | 38176 ft | 468 kts | 156° |
| 2026-04-18 02:11 | 38.27994 | -104.31664 | 38171 ft | 465 kts | 156° |
| 2026-04-18 02:12 | 38.22557 | -104.27251 | 38165 ft | 463 kts | 157° |
| 2026-04-18 02:12 | 38.17139 | -104.22864 | 38194 ft | 461 kts | 157° |
| 2026-04-18 02:13 | 38.11705 | -104.18478 | 38153 ft | 466 kts | 156° |
| 2026-04-18 02:13 | 38.06173 | -104.14020 | 38158 ft | 470 kts | 156° |
| 2026-04-18 02:14 | 38.00626 | -104.09555 | 38139 ft | 472 kts | 156° |
| 2026-04-18 02:14 | 37.95099 | -104.05113 | 38136 ft | 471 kts | 157° |
| 2026-04-18 02:15 | 37.89563 | -104.00671 | 38143 ft | 470 kts | 157° |
| 2026-04-18 02:15 | 37.84050 | -103.96259 | 38151 ft | 470 kts | 157° |
| 2026-04-18 02:16 | 37.78527 | -103.91845 | 38158 ft | 470 kts | 157° |
| 2026-04-18 02:16 | 37.72990 | -103.87429 | 38141 ft | 471 kts | 157° |
| 2026-04-18 02:17 | 37.67448 | -103.83017 | 38146 ft | 470 kts | 157° |
| 2026-04-18 02:17 | 37.61902 | -103.78609 | 38265 ft | 469 kts | 157° |
| 2026-04-18 02:17 | 37.59134 | -103.76410 | 38522 ft | 467 kts | 157° |
| 2026-04-18 02:18 | 37.56408 | -103.74246 | 38843 ft | 464 kts | 157° |
| 2026-04-18 02:18 | 37.53697 | -103.72096 | 39112 ft | 462 kts | 157° |
| 2026-04-18 02:18 | 37.50981 | -103.69949 | 39140 ft | 466 kts | 157° |
| 2026-04-18 02:19 | 37.45424 | -103.65562 | 39126 ft | 472 kts | 157° |
| 2026-04-18 02:19 | 37.39833 | -103.61152 | 39120 ft | 474 kts | 157° |
| 2026-04-18 02:20 | 37.34252 | -103.56754 | 39108 ft | 474 kts | 157° |
| 2026-04-18 02:20 | 37.28674 | -103.52363 | 39089 ft | 473 kts | 157° |
| 2026-04-18 02:21 | 37.23267 | -103.47520 | 39096 ft | 478 kts | 153° |
| 2026-04-18 02:21 | 37.17904 | -103.42587 | 39109 ft | 478 kts | 153° |
| 2026-04-18 02:22 | 37.12510 | -103.37636 | 39120 ft | 479 kts | 153° |
| 2026-04-18 02:22 | 37.07114 | -103.32694 | 39109 ft | 480 kts | 154° |
| 2026-04-18 02:23 | 37.01734 | -103.27778 | 39114 ft | 478 kts | 154° |
| 2026-04-18 02:23 | 36.96346 | -103.22864 | 39136 ft | 477 kts | 154° |
| 2026-04-18 02:24 | 36.90998 | -103.17999 | 39102 ft | 477 kts | 154° |
| 2026-04-18 02:24 | 36.85612 | -103.13107 | 39099 ft | 477 kts | 154° |
| 2026-04-18 02:25 | 36.80225 | -103.08224 | 39092 ft | 477 kts | 154° |
| 2026-04-18 02:25 | 36.74856 | -103.03365 | 39102 ft | 476 kts | 154° |
| 2026-04-18 02:26 | 36.69481 | -102.98512 | 39070 ft | 476 kts | 154° |
| 2026-04-18 02:26 | 36.64109 | -102.93670 | 39062 ft | 475 kts | 154° |
| 2026-04-18 02:27 | 36.58746 | -102.88843 | 39069 ft | 474 kts | 154° |
| 2026-04-18 02:27 | 36.53960 | -102.84544 | 39087 ft | 474 kts | 154° |
| 2026-04-18 02:28 | 36.48631 | -102.79767 | 39062 ft | 474 kts | 154° |
| 2026-04-18 02:28 | 36.45698 | -102.77138 | 39109 ft | 472 kts | 154° |
| 2026-04-18 02:29 | 36.41996 | -102.73822 | 39119 ft | 474 kts | 154° |
| 2026-04-18 02:29 | 36.37461 | -102.69771 | 39091 ft | 474 kts | 154° |
| 2026-04-18 02:30 | 36.32043 | -102.64939 | 39061 ft | 474 kts | 154° |
| 2026-04-18 02:30 | 36.26698 | -102.60180 | 39049 ft | 472 kts | 154° |
| 2026-04-18 02:31 | 36.21354 | -102.55428 | 39044 ft | 470 kts | 155° |
| 2026-04-18 02:31 | 36.16043 | -102.50717 | 39077 ft | 470 kts | 155° |
| 2026-04-18 02:32 | 36.10723 | -102.46006 | 39057 ft | 471 kts | 155° |
| 2026-04-18 02:32 | 36.05403 | -102.41300 | 39056 ft | 470 kts | 155° |
| 2026-04-18 02:33 | 36.00118 | -102.36633 | 39056 ft | 467 kts | 155° |
| 2026-04-18 02:33 | 35.94804 | -102.31949 | 39059 ft | 466 kts | 156° |
| 2026-04-18 02:34 | 35.89514 | -102.27295 | 39041 ft | 467 kts | 156° |
| 2026-04-18 02:34 | 35.84193 | -102.22623 | 39051 ft | 468 kts | 156° |
| 2026-04-18 02:35 | 35.78919 | -102.17996 | 39055 ft | 466 kts | 156° |
| 2026-04-18 02:35 | 35.73621 | -102.13357 | 39035 ft | 465 kts | 156° |
| 2026-04-18 02:36 | 35.68344 | -102.08746 | 39038 ft | 466 kts | 156° |
| 2026-04-18 02:36 | 35.63074 | -102.04148 | 39038 ft | 466 kts | 156° |
| 2026-04-18 02:37 | 35.57775 | -101.99533 | 39031 ft | 466 kts | 156° |
| 2026-04-18 02:37 | 35.52502 | -101.94946 | 39017 ft | 466 kts | 157° |
| 2026-04-18 02:38 | 35.47215 | -101.90356 | 39004 ft | 465 kts | 157° |
| 2026-04-18 02:38 | 35.41917 | -101.85763 | 39002 ft | 464 kts | 157° |
| 2026-04-18 02:39 | 35.36659 | -101.81213 | 39003 ft | 464 kts | 157° |
| 2026-04-18 02:39 | 35.31377 | -101.76647 | 38995 ft | 464 kts | 157° |
| 2026-04-18 02:40 | 35.26385 | -101.71430 | 39003 ft | 482 kts | 146° |
| 2026-04-18 02:40 | 35.24141 | -101.68296 | 38992 ft | 493 kts | 140° |
| 2026-04-18 02:40 | 35.22150 | -101.64852 | 38983 ft | 503 kts | 133° |
| 2026-04-18 02:40 | 35.20419 | -101.61024 | 38982 ft | 514 kts | 126° |
| 2026-04-18 02:41 | 35.18970 | -101.57013 | 38966 ft | 518 kts | 123° |
| 2026-04-18 02:41 | 35.16121 | -101.48903 | 38983 ft | 519 kts | 123° |
| 2026-04-18 02:42 | 35.13252 | -101.40773 | 38965 ft | 520 kts | 123° |
| 2026-04-18 02:42 | 35.10390 | -101.32682 | 38948 ft | 519 kts | 124° |
| 2026-04-18 02:43 | 35.07519 | -101.24593 | 38952 ft | 519 kts | 124° |
| 2026-04-18 02:43 | 35.04638 | -101.16499 | 38959 ft | 518 kts | 124° |
| 2026-04-18 02:44 | 35.01775 | -101.08478 | 38952 ft | 518 kts | 124° |
| 2026-04-18 02:44 | 34.98888 | -101.00415 | 38936 ft | 518 kts | 124° |
| 2026-04-18 02:45 | 34.95993 | -100.92348 | 38912 ft | 518 kts | 124° |
| 2026-04-18 02:45 | 34.93118 | -100.84359 | 38923 ft | 520 kts | 125° |
| 2026-04-18 02:46 | 34.90197 | -100.76266 | 38909 ft | 520 kts | 124° |
| 2026-04-18 02:46 | 34.87300 | -100.68253 | 38918 ft | 519 kts | 124° |
| 2026-04-18 02:47 | 34.84388 | -100.60223 | 38917 ft | 518 kts | 124° |
| 2026-04-18 02:47 | 34.81469 | -100.52195 | 38881 ft | 520 kts | 124° |
| 2026-04-18 02:48 | 34.78544 | -100.44171 | 38838 ft | 520 kts | 124° |
| 2026-04-18 02:48 | 34.75592 | -100.36091 | 38855 ft | 520 kts | 124° |
| 2026-04-18 02:49 | 34.72644 | -100.28044 | 38838 ft | 520 kts | 126° |
| 2026-04-18 02:49 | 34.69720 | -100.20078 | 38848 ft | 519 kts | 125° |
| 2026-04-18 02:50 | 34.66751 | -100.12016 | 38834 ft | 520 kts | 125° |
| 2026-04-18 02:50 | 34.63792 | -100.04001 | 38852 ft | 522 kts | 126° |
| 2026-04-18 02:51 | 34.60809 | -99.95935 | 38843 ft | 522 kts | 125° |
| 2026-04-18 02:51 | 34.57829 | -99.87896 | 38841 ft | 524 kts | 125° |
| 2026-04-18 02:52 | 34.54826 | -99.79813 | 38814 ft | 526 kts | 125° |
| 2026-04-18 02:52 | 34.51814 | -99.71754 | 38823 ft | 524 kts | 125° |
| 2026-04-18 02:53 | 34.48815 | -99.63728 | 38799 ft | 523 kts | 124° |
| 2026-04-18 02:53 | 34.45812 | -99.55720 | 38760 ft | 521 kts | 125° |
| 2026-04-18 02:54 | 34.42821 | -99.47747 | 38821 ft | 519 kts | 124° |
| 2026-04-18 02:54 | 34.39724 | -99.39872 | 38794 ft | 512 kts | 130° |
| 2026-04-18 02:55 | 34.36187 | -99.32459 | 38794 ft | 508 kts | 131° |
| 2026-04-18 02:55 | 34.32650 | -99.25073 | 38764 ft | 509 kts | 131° |
| 2026-04-18 02:56 | 34.29098 | -99.17667 | 38772 ft | 509 kts | 131° |
| 2026-04-18 02:56 | 34.23972 | -99.07001 | 38395 ft | 508 kts | 132° |
| 2026-04-18 02:57 | 34.22196 | -99.03301 | 38147 ft | 502 kts | 131° |
| 2026-04-18 02:57 | 34.20446 | -98.99667 | 37910 ft | 500 kts | 132° |
| 2026-04-18 02:57 | 34.18697 | -98.96037 | 37665 ft | 496 kts | 132° |
| 2026-04-18 02:57 | 34.16965 | -98.92449 | 37422 ft | 495 kts | 132° |
| 2026-04-18 02:58 | 34.15235 | -98.88875 | 36949 ft | 499 kts | 132° |
| 2026-04-18 02:58 | 34.13477 | -98.85246 | 36274 ft | 498 kts | 132° |
| 2026-04-18 02:58 | 34.11760 | -98.81696 | 35632 ft | 495 kts | 132° |
| 2026-04-18 02:58 | 34.09995 | -98.78052 | 34983 ft | 494 kts | 132° |
| 2026-04-18 02:59 | 34.08257 | -98.74469 | 34344 ft | 494 kts | 132° |
| 2026-04-18 02:59 | 34.06519 | -98.70892 | 33722 ft | 494 kts | 133° |
| 2026-04-18 02:59 | 34.04762 | -98.67280 | 33080 ft | 496 kts | 132° |
| 2026-04-18 02:59 | 34.03001 | -98.63664 | 32411 ft | 496 kts | 131° |
| 2026-04-18 03:00 | 34.01273 | -98.60114 | 31751 ft | 495 kts | 131° |
| 2026-04-18 03:00 | 33.99526 | -98.56526 | 31102 ft | 490 kts | 130° |
| 2026-04-18 03:00 | 33.97823 | -98.53032 | 30452 ft | 485 kts | 130° |
| 2026-04-18 03:00 | 33.96108 | -98.49514 | 29812 ft | 480 kts | 130° |
| 2026-04-18 03:01 | 33.94443 | -98.46107 | 29183 ft | 475 kts | 130° |
| 2026-04-18 03:01 | 33.92761 | -98.42667 | 28555 ft | 470 kts | 129° |
| 2026-04-18 03:01 | 33.91115 | -98.39306 | 27933 ft | 465 kts | 129° |
| 2026-04-18 03:01 | 33.89475 | -98.35958 | 27312 ft | 460 kts | 129° |
| 2026-04-18 03:02 | 33.87855 | -98.32656 | 26701 ft | 456 kts | 129° |
| 2026-04-18 03:02 | 33.86240 | -98.29369 | 26106 ft | 451 kts | 129° |
| 2026-04-18 03:02 | 33.84658 | -98.26145 | 25495 ft | 448 kts | 129° |
| 2026-04-18 03:02 | 33.83086 | -98.22947 | 24928 ft | 444 kts | 129° |
| 2026-04-18 03:03 | 33.81523 | -98.19771 | 24328 ft | 440 kts | 129° |
| 2026-04-18 03:03 | 33.79959 | -98.16601 | 23752 ft | 438 kts | 129° |
| 2026-04-18 03:03 | 33.78418 | -98.13480 | 23177 ft | 435 kts | 129° |
| 2026-04-18 03:03 | 33.76872 | -98.10350 | 22600 ft | 430 kts | 129° |
| 2026-04-18 03:04 | 33.75364 | -98.07301 | 22038 ft | 427 kts | 128° |
| 2026-04-18 03:04 | 33.73842 | -98.04225 | 21492 ft | 423 kts | 128° |
| 2026-04-18 03:04 | 33.72357 | -98.01228 | 20918 ft | 421 kts | 128° |
| 2026-04-18 03:04 | 33.70858 | -97.98204 | 20359 ft | 416 kts | 127° |
| 2026-04-18 03:05 | 33.69389 | -97.95245 | 19814 ft | 413 kts | 127° |
| 2026-04-18 03:05 | 33.67937 | -97.92320 | 19414 ft | 406 kts | 127° |
| 2026-04-18 03:05 | 33.66478 | -97.89386 | 18856 ft | 410 kts | 126° |
| 2026-04-18 03:05 | 33.65035 | -97.86485 | 18333 ft | 403 kts | 126° |
| 2026-04-18 03:06 | 33.63601 | -97.83604 | 17784 ft | 399 kts | 126° |
| 2026-04-18 03:06 | 33.62186 | -97.80765 | 17262 ft | 396 kts | 125° |
| 2026-04-18 03:06 | 33.60762 | -97.77908 | 16728 ft | 393 kts | 125° |
| 2026-04-18 03:06 | 33.59376 | -97.75135 | 16202 ft | 389 kts | 125° |
| 2026-04-18 03:07 | 33.57987 | -97.72353 | 15700 ft | 383 kts | 124° |
| 2026-04-18 03:07 | 33.56628 | -97.69632 | 15175 ft | 381 kts | 124° |
| 2026-04-18 03:07 | 33.55268 | -97.66913 | 14678 ft | 375 kts | 124° |
| 2026-04-18 03:07 | 33.53942 | -97.64259 | 14219 ft | 368 kts | 124° |
| 2026-04-18 03:08 | 33.52644 | -97.61668 | 13694 ft | 364 kts | 124° |
| 2026-04-18 03:08 | 33.51343 | -97.59071 | 13236 ft | 357 kts | 124° |
| 2026-04-18 03:08 | 33.50081 | -97.56556 | 12779 ft | 352 kts | 124° |
| 2026-04-18 03:08 | 33.48834 | -97.54071 | 12293 ft | 349 kts | 125° |
| 2026-04-18 03:09 | 33.47586 | -97.51586 | 11846 ft | 344 kts | 124° |
| 2026-04-18 03:09 | 33.46370 | -97.49167 | 11401 ft | 340 kts | 124° |
| 2026-04-18 03:09 | 33.45336 | -97.46641 | 11049 ft | 337 kts | 110° |
| 2026-04-18 03:09 | 33.44951 | -97.43913 | 10813 ft | 331 kts | 95° |
| 2026-04-18 03:10 | 33.44850 | -97.41145 | 10388 ft | 329 kts | 94° |
| 2026-04-18 03:10 | 33.44752 | -97.38446 | 9985 ft | 327 kts | 94° |
| 2026-04-18 03:10 | 33.44653 | -97.35743 | 9554 ft | 325 kts | 94° |
| 2026-04-18 03:10 | 33.44552 | -97.33044 | 9151 ft | 322 kts | 94° |
| 2026-04-18 03:11 | 33.44452 | -97.30376 | 8711 ft | 321 kts | 95° |
| 2026-04-18 03:11 | 33.44352 | -97.27728 | 8300 ft | 318 kts | 95° |
| 2026-04-18 03:11 | 33.44252 | -97.25071 | 7855 ft | 316 kts | 95° |
| 2026-04-18 03:11 | 33.44153 | -97.22456 | 7434 ft | 313 kts | 95° |
| 2026-04-18 03:12 | 33.44054 | -97.19879 | 7016 ft | 310 kts | 96° |
| 2026-04-18 03:12 | 33.43954 | -97.17320 | 6611 ft | 307 kts | 96° |
| 2026-04-18 03:12 | 33.43854 | -97.14785 | 6235 ft | 304 kts | 96° |
| 2026-04-18 03:12 | 33.43755 | -97.12260 | 5855 ft | 302 kts | 97° |
| 2026-04-18 03:13 | 33.43658 | -97.09772 | 5472 ft | 299 kts | 97° |
| 2026-04-18 03:13 | 33.43516 | -97.07293 | 5103 ft | 289 kts | 107° |
| 2026-04-18 03:13 | 33.42730 | -97.05243 | 4752 ft | 265 kts | 137° |
| 2026-04-18 03:13 | 33.41307 | -97.04025 | 4489 ft | 243 kts | 161° |
| 2026-04-18 03:14 | 33.39793 | -97.03210 | 4243 ft | 232 kts | 162° |
| 2026-04-18 03:14 | 33.38328 | -97.02445 | 3998 ft | 224 kts | 162° |
| 2026-04-18 03:14 | 33.36911 | -97.01709 | 3760 ft | 216 kts | 163° |
| 2026-04-18 03:14 | 33.35555 | -97.00999 | 3512 ft | 210 kts | 162° |
| 2026-04-18 03:15 | 33.34235 | -97.00311 | 3310 ft | 201 kts | 163° |
| 2026-04-18 03:15 | 33.32981 | -96.99661 | 3186 ft | 193 kts | 163° |
| 2026-04-18 03:15 | 33.31708 | -96.99259 | 3051 ft | 186 kts | 185° |
| 2026-04-18 03:15 | 33.30447 | -96.99480 | 2917 ft | 184 kts | 192° |
| 2026-04-18 03:16 | 33.29190 | -96.99803 | 2798 ft | 185 kts | 192° |
| 2026-04-18 03:16 | 33.27914 | -97.00151 | 2686 ft | 186 kts | 193° |
| 2026-04-18 03:16 | 33.26656 | -97.00500 | 2561 ft | 186 kts | 192° |
| 2026-04-18 03:16 | 33.25384 | -97.00860 | 2466 ft | 185 kts | 193° |
| 2026-04-18 03:17 | 33.24135 | -97.01219 | 2469 ft | 185 kts | 192° |
| 2026-04-18 03:17 | 33.22867 | -97.01588 | 2480 ft | 187 kts | 192° |
| 2026-04-18 03:17 | 33.21587 | -97.01964 | 2476 ft | 187 kts | 193° |
| 2026-04-18 03:17 | 33.20327 | -97.02330 | 2482 ft | 187 kts | 193° |
| 2026-04-18 03:18 | 33.19065 | -97.02697 | 2474 ft | 186 kts | 193° |
| 2026-04-18 03:18 | 33.17795 | -97.03064 | 2479 ft | 186 kts | 193° |
| 2026-04-18 03:18 | 33.16523 | -97.03432 | 2486 ft | 180 kts | 192° |
| 2026-04-18 03:18 | 33.15340 | -97.03607 | 2494 ft | 162 kts | 184° |
| 2026-04-18 03:19 | 33.14254 | -97.03658 | 2495 ft | 155 kts | 183° |
| 2026-04-18 03:19 | 33.13169 | -97.03706 | 2475 ft | 154 kts | 182° |
| 2026-04-18 03:19 | 33.12095 | -97.03748 | 2474 ft | 155 kts | 182° |
| 2026-04-18 03:19 | 33.11013 | -97.03797 | 2469 ft | 155 kts | 183° |
| 2026-04-18 03:20 | 33.09936 | -97.03835 | 2482 ft | 154 kts | 184° |
| 2026-04-18 03:20 | 33.08858 | -97.03868 | 2482 ft | 154 kts | 182° |
| 2026-04-18 03:20 | 33.07771 | -97.03904 | 2471 ft | 154 kts | 182° |
| 2026-04-18 03:20 | 33.06704 | -97.03946 | 2467 ft | 153 kts | 182° |
| 2026-04-18 03:21 | 33.05614 | -97.03992 | 2465 ft | 155 kts | 182° |
| 2026-04-18 03:21 | 33.04529 | -97.04041 | 2458 ft | 154 kts | 182° |
| 2026-04-18 03:21 | 33.03455 | -97.04092 | 2474 ft | 155 kts | 183° |
| 2026-04-18 03:21 | 33.02353 | -97.04131 | 2468 ft | 156 kts | 179° |
| 2026-04-18 03:22 | 33.01318 | -97.03750 | 2470 ft | 160 kts | 154° |
| 2026-04-18 03:22 | 33.00452 | -97.02889 | 2473 ft | 165 kts | 143° |
| 2026-04-18 03:22 | 32.99648 | -97.01901 | 2471 ft | 166 kts | 142° |
| 2026-04-18 03:22 | 32.98823 | -97.00905 | 2476 ft | 166 kts | 143° |
| 2026-04-18 03:23 | 32.97950 | -96.99878 | 2474 ft | 166 kts | 143° |
| 2026-04-18 03:23 | 32.97083 | -96.98865 | 2465 ft | 166 kts | 143° |
| 2026-04-18 03:23 | 32.96254 | -96.97907 | 2475 ft | 166 kts | 144° |
| 2026-04-18 03:23 | 32.95416 | -96.96931 | 2470 ft | 165 kts | 143° |
| 2026-04-18 03:24 | 32.94622 | -96.95995 | 2495 ft | 154 kts | 144° |
| 2026-04-18 03:24 | 32.93880 | -96.95129 | 2477 ft | 141 kts | 145° |
| 2026-04-18 03:24 | 32.93256 | -96.94389 | 2489 ft | 115 kts | 145° |
| 2026-04-18 03:24 | 32.92672 | -96.93716 | 2315 ft | 112 kts | 147° |
| 2026-04-18 03:25 | 32.92107 | -96.93073 | 2191 ft | 111 kts | 147° |
| 2026-04-18 03:25 | 32.91543 | -96.92439 | 2038 ft | 109 kts | 146° |
| 2026-04-18 03:25 | 32.90997 | -96.91807 | 1902 ft | 110 kts | 143° |
| 2026-04-18 03:25 | 32.90445 | -96.91157 | 1764 ft | 110 kts | 143° |
| 2026-04-18 03:26 | 32.89895 | -96.90514 | 1629 ft | 111 kts | 143° |
| 2026-04-18 03:26 | 32.89339 | -96.89865 | 1488 ft | 113 kts | 143° |
| 2026-04-18 03:26 | 32.88771 | -96.89205 | 1313 ft | 114 kts | 140° |
| 2026-04-18 03:26 | 32.88209 | -96.88553 | 1164 ft | 114 kts | 143° |
| 2026-04-18 03:27 | 32.87638 | -96.87897 | 992 ft | 115 kts | 140° |
| 2026-04-18 03:27 | 32.87059 | -96.87219 | 858 ft | 118 kts | 140° |
| 2026-04-18 03:27 | 32.86465 | -96.86546 | 721 ft | 119 kts | 140° |
| 2026-04-18 03:27 | 32.85869 | -96.85842 | 595 ft | 120 kts | 139° |
| 2026-04-18 03:28 | 32.85285 | -96.85174 | 486 ft | 108 kts | 138° |
| 2026-04-18 03:28 | 32.84866 | -96.84682 | 490 ft | 49 kts | 134° |
| 2026-04-18 03:28 | 32.84787 | -96.84560 | 490 ft | 8 kts | 75° |
| 2026-04-18 03:28 | 32.84828 | -96.84494 | 491 ft | 9 kts | 72° |
| 2026-04-18 03:29 | 32.84795 | -96.84418 | 492 ft | 15 kts | 135° |
| 2026-04-18 03:29 | 32.84706 | -96.84317 | 492 ft | 19 kts | 136° |
| 2026-04-18 03:29 | 32.84611 | -96.84203 | 492 ft | 16 kts | 134° |
| 2026-04-18 03:29 | 32.84519 | -96.84100 | 492 ft | 18 kts | 136° |
| 2026-04-18 03:30 | 32.84507 | -96.84043 | 492 ft | 9 kts | 58° |
| 2026-04-18 03:30 | 32.84556 | -96.83980 | 493 ft | 4 kts | 45° |
| 2026-04-18 03:30 | 32.84561 | -96.83974 | 493 ft | 0 kts | 45° |